Time;durP1;ratioP1;P1;durP2;ratioP2;P2;SDS_P1;SDS_P2;PMS_P1;PMS_P2;Temp;Humidity;BMP_temperature;BMP_pressure;BME280_temperature;BME280_humidity;BME280_pressure;Samples;Min_cycle;Max_cycle;Signal;HPM_P1;HPM_P2
2022/06/16 00:00:39;;;;;;;11.43;5.17;;;;;;;15.32;63.78;99440.40;1731667;82;20987;-51
2022/06/16 00:03:08;;;;;;;10.15;5.85;;;;;;;15.31;63.58;99441.34;1731611;81;21066;-47
2022/06/16 00:05:38;;;;;;;7.12;5.10;;;;;;;15.33;63.73;99445.21;1731529;83;21042;-49
2022/06/16 00:08:07;;;;;;;10.75;5.65;;;;;;;15.32;64.10;99436.91;1731424;81;21046;-48
2022/06/16 00:10:34;;;;;;;8.60;5.30;;;;;;;15.34;63.67;99437.16;1731595;82;21022;-49
2022/06/16 00:13:00;;;;;;;9.00;5.03;;;;;;;15.35;63.62;99440.19;1731636;82;21563;-49
2022/06/16 00:15:27;;;;;;;12.75;6.00;;;;;;;15.35;63.96;99438.86;1731454;82;21007;-49
2022/06/16 00:17:54;;;;;;;;;;;;;;;15.37;63.84;99430.77;1734059;82;21563;-50
2022/06/16 00:20:20;;;;;;;10.40;5.15;;;;;;;15.39;63.23;99431.99;1731575;83;20215;-51
2022/06/16 00:22:46;;;;;;;11.95;4.97;;;;;;;15.39;63.61;99428.02;1731684;83;21039;-47
2022/06/16 00:25:13;;;;;;;13.93;5.60;;;;;;;15.41;63.76;99424.31;1731390;83;21073;-51
2022/06/16 00:27:40;;;;;;;7.05;4.87;;;;;;;15.44;63.30;99433.34;1731918;83;21007;-48
2022/06/16 00:30:09;;;;;;;9.00;5.10;;;;;;;15.46;62.92;99431.91;1724089;81;21032;-48
2022/06/16 00:32:38;;;;;;;9.83;5.53;;;;;;;15.46;62.64;99426.16;1718561;82;21631;-51
2022/06/16 00:35:06;;;;;;;16.37;5.83;;;;;;;15.45;62.72;99427.59;1718774;83;21078;-52
2022/06/16 00:37:32;;;;;;;10.72;5.72;;;;;;;15.44;62.56;99425.88;1718612;82;21058;-49
2022/06/16 00:39:58;;;;;;;10.43;5.28;;;;;;;15.40;62.76;99424.42;1718740;83;20996;-47
2022/06/16 00:42:26;;;;;;;9.83;5.22;;;;;;;15.35;62.94;99419.45;1718605;82;21047;-52
2022/06/16 00:44:57;;;;;;;10.98;6.00;;;;;;;15.30;63.11;99416.31;1718543;82;21317;-49
2022/06/16 00:47:27;;;;;;;12.70;5.70;;;;;;;15.28;62.85;99421.72;1718589;82;21071;-49
2022/06/16 00:49:59;;;;;;;11.38;5.70;;;;;;;15.21;63.38;99423.12;1718515;82;21107;-48
2022/06/16 00:52:30;;;;;;;9.93;5.65;;;;;;;15.18;63.56;99411.41;1718564;83;21576;-50
2022/06/16 00:55:04;;;;;;;10.55;5.33;;;;;;;15.15;63.78;99408.97;1718592;82;21089;-49
2022/06/16 00:57:38;;;;;;;9.00;5.22;;;;;;;15.13;63.58;99408.24;1718552;82;21476;-51
2022/06/16 01:02:55;;;;;;;15.50;5.22;;;;;;;15.06;63.61;99408.31;1718535;83;21110;-46
2022/06/16 01:05:23;;;;;;;7.40;5.00;;;;;;;15.04;63.48;99404.94;1718783;82;21025;-50
2022/06/16 01:07:50;;;;;;;8.70;4.97;;;;;;;15.03;63.92;99412.53;1718419;82;20992;-49
2022/06/16 01:10:18;;;;;;;10.30;5.35;;;;;;;15.00;63.92;99402.15;1718943;83;21015;-47
2022/06/16 01:16:32;;;;;;;10.20;4.78;;;;;;;14.95;63.70;99402.01;1718568;82;21032;-47
2022/06/16 01:19:27;;;;;;;9.70;5.12;;;;;;;14.93;63.73;99403.06;1718843;83;21091;-51
2022/06/16 01:22:10;;;;;;;14.00;5.15;;;;;;;14.88;64.12;99399.43;1718845;82;21031;-48
2022/06/16 01:24:47;;;;;;;8.65;4.50;;;;;;;14.84;63.90;99396.61;1718764;83;21043;-54
2022/06/16 01:27:27;;;;;;;9.93;4.90;;;;;;;14.84;63.72;99395.77;1717826;83;21020;-52
2022/06/16 01:30:09;;;;;;;6.75;4.78;;;;;;;14.82;63.50;99399.84;1718462;82;21047;-48
2022/06/16 01:33:03;;;;;;;9.58;4.67;;;;;;;14.82;63.78;99402.50;1718746;82;21031;-50
2022/06/16 01:35:46;;;;;;;8.65;4.80;;;;;;;14.82;63.75;99401.17;1718853;83;21026;-49
2022/06/16 01:38:53;;;;;;;7.00;4.47;;;;;;;14.79;63.41;99398.77;1718189;83;21612;-51
2022/06/16 01:41:31;;;;;;;7.97;4.47;;;;;;;14.80;63.30;99399.60;1718033;82;21359;-50
2022/06/16 01:44:25;;;;;;;7.15;4.20;;;;;;;14.77;63.61;99394.90;1718779;82;21531;-49
2022/06/16 01:46:58;;;;;;;7.87;4.83;;;;;;;14.77;63.67;99397.55;1708412;83;21043;-48
2022/06/16 01:49:28;;;;;;;9.95;5.30;;;;;;;14.76;63.68;99401.62;1718627;82;21568;-52
2022/06/16 01:52:02;;;;;;;6.75;4.67;;;;;;;14.75;64.05;99398.59;1718956;82;21024;-51
2022/06/16 01:54:40;;;;;;;12.30;5.15;;;;;;;14.76;63.90;99391.03;1718906;83;20984;-51
2022/06/16 01:57:12;;;;;;;;;;;;;;;14.75;63.93;99384.90;1721326;82;21087;-50
2022/06/16 02:00:08;;;;;;;11.48;5.05;;;;;;;14.74;64.60;99381.03;1718665;83;20131;-50
2022/06/16 02:02:38;;;;;;;8.30;5.22;;;;;;;14.76;63.97;99385.73;1718793;82;21086;-50
2022/06/16 02:05:24;;;;;;;10.35;4.70;;;;;;;14.78;63.80;99379.85;1718839;82;21051;-48
2022/06/16 02:08:16;;;;;;;7.95;5.08;;;;;;;14.82;64.17;99387.09;1718010;82;21608;-49
2022/06/16 02:10:50;;;;;;;11.00;5.22;;;;;;;14.85;63.67;99382.92;1718687;82;21075;-49
2022/06/16 02:13:24;;;;;;;6.92;4.22;;;;;;;14.90;63.61;99385.60;1714805;82;20988;-48
2022/06/16 02:16:17;;;;;;;10.00;5.45;;;;;;;14.94;63.67;99383.09;1718506;83;21023;-49
2022/06/16 02:18:44;;;;;;;11.08;5.22;;;;;;;14.99;63.79;99381.45;1716200;83;20988;-49
2022/06/16 02:21:40;;;;;;;7.12;4.78;;;;;;;15.06;63.71;99377.86;1708380;83;21042;-46
2022/06/16 02:24:12;;;;;;;9.85;5.35;;;;;;;15.08;63.39;99372.84;1717731;83;21075;-46
2022/06/16 02:26:39;;;;;;;8.30;5.25;;;;;;;15.13;63.15;99373.35;1718464;82;21043;-48
2022/06/16 02:29:38;;;;;;;7.40;4.97;;;;;;;15.15;62.78;99373.22;1718936;82;21921;-50
2022/06/16 02:32:52;;;;;;;7.78;4.87;;;;;;;15.15;62.56;99370.56;1718775;83;21019;-48
2022/06/16 02:35:44;;;;;;;11.75;6.03;;;;;;;15.18;61.99;99372.16;1718763;82;21086;-50
2022/06/16 02:38:30;;;;;;;10.43;5.45;;;;;;;15.18;61.96;99377.46;1718676;82;21528;-51
2022/06/16 02:44:02;;;;;;;10.98;5.87;;;;;;;15.22;62.24;99378.92;1656698;85;21210;-52
2022/06/16 02:46:52;;;;;;;15.05;6.35;;;;;;;15.22;62.07;99381.57;1640730;86;21038;-47
2022/06/16 02:49:54;;;;;;;8.30;5.75;;;;;;;15.22;61.63;99375.78;1641036;86;21161;-49
2022/06/16 02:52:43;;;;;;;10.85;5.87;;;;;;;15.23;61.52;99377.98;1639631;87;21481;-49
2022/06/16 02:55:26;;;;;;;11.95;6.33;;;;;;;15.21;61.61;99374.56;1640682;86;21034;-48
2022/06/16 02:57:59;;;;;;;7.47;5.67;;;;;;;15.19;61.54;99374.70;1641218;87;21026;-46
2022/06/16 03:00:31;;;;;;;16.23;5.85;;;;;;;15.21;61.61;99368.81;1641065;86;21121;-50
2022/06/16 03:02:57;;;;;;;12.05;5.92;;;;;;;15.21;61.50;99367.94;1639755;87;20999;-49
2022/06/16 03:05:23;;;;;;;9.20;5.45;;;;;;;15.24;61.55;99367.73;1641037;86;21578;-48
2022/06/16 03:07:49;;;;;;;9.88;5.20;;;;;;;15.22;61.47;99379.75;1641050;87;21030;-50
2022/06/16 03:13:01;;;;;;;7.15;5.25;;;;;;;15.24;61.12;99371.21;1641039;86;21014;-50
2022/06/16 03:15:27;;;;;;;8.03;5.70;;;;;;;15.26;61.12;99373.30;1641067;87;21390;-50
2022/06/16 03:17:52;;;;;;;11.93;5.53;;;;;;;15.29;61.60;99375.70;1640992;86;21339;-53
2022/06/16 03:20:18;;;;;;;8.60;5.65;;;;;;;15.32;61.39;99381.27;1641042;87;21055;-53
2022/06/16 03:22:44;;;;;;;7.95;5.22;;;;;;;15.33;61.58;99376.32;1641034;87;21018;-50
2022/06/16 03:25:12;;;;;;;10.38;5.72;;;;;;;15.36;61.40;99376.94;1641060;86;21483;-51
2022/06/16 03:27:38;;;;;;;10.25;5.67;;;;;;;15.38;61.29;99379.97;1641069;87;21094;-49
2022/06/16 03:30:05;;;;;;;9.95;5.53;;;;;;;15.39;61.18;99380.32;1641001;87;21476;-50
2022/06/16 03:32:30;;;;;;;11.03;6.20;;;;;;;15.38;61.28;99379.48;1641106;87;21543;-50
2022/06/16 03:34:56;;;;;;;10.25;5.55;;;;;;;15.39;61.05;99385.63;1641022;87;21066;-48
2022/06/16 03:37:23;;;;;;;12.30;6.28;;;;;;;15.41;61.16;99379.72;1641020;87;21034;-48
2022/06/16 03:39:49;;;;;;;10.53;5.47;;;;;;;15.43;61.06;99375.19;1641236;87;20999;-48
2022/06/16 03:42:15;;;;;;;18.20;5.97;;;;;;;15.40;60.92;99372.27;1640934;86;21472;-48
2022/06/16 03:44:41;;;;;;;11.97;6.08;;;;;;;15.45;61.26;99374.59;1640975;87;21006;-53
2022/06/16 03:47:08;;;;;;;12.28;6.00;;;;;;;15.45;61.17;99370.61;1641037;86;21450;-52
2022/06/16 03:49:33;;;;;;;8.87;5.97;;;;;;;15.46;60.98;99371.83;1641370;87;21078;-48
2022/06/16 03:51:59;;;;;;;10.20;6.12;;;;;;;15.49;61.20;99370.74;1641074;87;22004;-50
2022/06/16 03:54:25;;;;;;;13.05;5.65;;;;;;;15.48;61.28;99364.61;1641046;86;21496;-51
2022/06/16 03:56:51;;;;;;;11.12;6.42;;;;;;;15.50;60.96;99367.14;1641024;87;21497;-53
2022/06/16 03:59:21;;;;;;;13.13;6.05;;;;;;;15.54;60.83;99367.27;1641006;87;21038;-50
2022/06/16 04:01:44;;;;;;;7.70;5.42;;;;;;;15.56;60.56;99361.37;1640614;86;21018;-49
2022/06/16 04:04:10;;;;;;;6.12;4.92;;;;;;;15.58;60.63;99366.56;1641013;86;21006;-51
2022/06/16 04:06:36;;;;;;;7.97;5.35;;;;;;;15.59;60.52;99363.80;1640966;87;21083;-46
2022/06/16 04:09:04;;;;;;;9.58;5.67;;;;;;;15.62;60.58;99358.25;1640981;87;20991;-46
2022/06/16 04:11:30;;;;;;;14.25;5.55;;;;;;;15.61;60.55;99369.83;1641018;87;21030;-47
2022/06/16 04:14:10;;;;;;;9.58;5.60;;;;;;;15.66;60.66;99367.69;1640967;87;21027;-46
2022/06/16 04:16:40;;;;;;;10.98;5.22;;;;;;;15.70;61.20;99366.98;1641034;87;21078;-48
2022/06/16 04:19:08;;;;;;;5.75;4.58;;;;;;;15.73;60.85;99360.97;1641041;87;21026;-46
2022/06/16 04:21:37;;;;;;;7.83;5.05;;;;;;;15.76;60.31;99359.07;1641016;87;21515;-50
2022/06/16 04:24:04;;;;;;;6.80;5.40;;;;;;;15.77;60.25;99352.33;1640998;87;21512;-46
2022/06/16 04:26:30;;;;;;;6.47;4.55;;;;;;;15.83;60.18;99353.67;1641158;86;21086;-50
2022/06/16 04:28:56;;;;;;;9.40;4.92;;;;;;;15.86;60.05;99345.00;1641034;87;21496;-45
2022/06/16 04:31:21;;;;;;;6.97;4.65;;;;;;;15.93;59.84;99348.88;1641031;87;21050;-49
2022/06/16 04:33:47;;;;;;;6.65;4.65;;;;;;;15.98;59.77;99345.84;1641051;87;21547;-46
2022/06/16 04:36:15;;;;;;;10.78;4.40;;;;;;;16.02;59.73;99342.48;1641063;86;21490;-47
2022/06/16 04:38:41;;;;;;;7.97;4.40;;;;;;;16.06;59.54;99342.14;1641134;87;21070;-47
2022/06/16 04:41:07;;;;;;;8.75;4.12;;;;;;;16.06;59.50;99346.12;1640915;86;21443;-48
2022/06/16 04:43:33;;;;;;;6.47;4.20;;;;;;;16.11;59.40;99351.89;1641002;86;21086;-50
2022/06/16 04:46:00;;;;;;;8.93;4.03;;;;;;;16.16;59.22;99348.05;1641063;87;21031;-49
2022/06/16 04:48:27;;;;;;;7.50;4.60;;;;;;;16.18;58.97;99344.80;1641363;87;21035;-50
2022/06/16 04:50:53;;;;;;;6.83;4.30;;;;;;;16.18;58.97;99344.80;1641340;87;21730;-46
2022/06/16 04:53:19;;;;;;;6.42;4.70;;;;;;;16.19;58.96;99343.81;1641124;86;21563;-48
2022/06/16 04:55:56;;;;;;;11.90;4.28;;;;;;;16.20;59.12;99339.72;1641114;87;21526;-46
2022/06/16 04:58:23;;;;;;;8.50;4.22;;;;;;;16.22;59.08;99338.28;1640166;87;21050;-50
2022/06/16 05:00:50;;;;;;;11.33;4.53;;;;;;;16.22;59.11;99334.30;1641402;87;21011;-47
2022/06/16 05:03:22;;;;;;;7.42;3.92;;;;;;;16.20;59.01;99341.05;1641138;87;21059;-46
2022/06/16 05:05:49;;;;;;;5.47;4.00;;;;;;;16.21;58.96;99337.91;1641036;87;21562;-46
2022/06/16 05:08:17;;;;;;;;;;;;;;;16.21;59.01;99333.92;1643565;86;21594;-47
2022/06/16 05:10:45;;;;;;;6.62;4.08;;;;;;;16.15;59.25;99338.39;1641143;86;20440;-49
2022/06/16 05:13:11;;;;;;;5.03;3.87;;;;;;;16.17;59.03;99341.77;1641074;87;21078;-49
2022/06/16 05:15:37;;;;;;;5.20;3.47;;;;;;;16.17;58.97;99334.67;1641186;87;21039;-50
2022/06/16 05:18:04;;;;;;;7.72;4.15;;;;;;;16.20;58.80;99337.07;1641183;86;21079;-49
2022/06/16 05:20:30;;;;;;;6.75;4.17;;;;;;;16.23;58.85;99338.66;1641189;87;21050;-53
2022/06/16 05:22:55;;;;;;;7.78;4.30;;;;;;;16.25;58.97;99339.38;1641056;86;21074;-52
2022/06/16 05:25:21;;;;;;;7.08;3.77;;;;;;;16.31;58.92;99333.58;1641198;86;21023;-51
2022/06/16 05:27:48;;;;;;;6.08;4.00;;;;;;;16.37;58.75;99322.50;1641117;87;21042;-49
2022/06/16 05:30:14;;;;;;;6.05;3.60;;;;;;;16.46;58.53;99322.23;1641091;87;21035;-47
2022/06/16 05:32:42;;;;;;;6.67;3.60;;;;;;;16.56;58.53;99317.05;1641176;86;21030;-50
2022/06/16 05:35:08;;;;;;;6.58;3.98;;;;;;;16.66;58.37;99320.64;1641023;86;21552;-49
2022/06/16 05:37:34;;;;;;;6.47;3.70;;;;;;;16.72;58.23;99313.53;1641184;87;21063;-46
2022/06/16 05:40:01;;;;;;;4.00;3.12;;;;;;;16.76;57.93;99317.62;1641112;86;21038;-52
2022/06/16 05:42:27;;;;;;;7.90;3.80;;;;;;;16.83;58.05;99308.22;1642816;86;21047;-51
2022/06/16 05:44:52;;;;;;;6.70;3.65;;;;;;;16.85;57.96;99310.76;1648678;86;21002;-51
2022/06/16 05:47:18;;;;;;;6.25;3.30;;;;;;;16.89;57.75;99310.86;1648675;86;21070;-50
2022/06/16 05:49:44;;;;;;;4.03;3.27;;;;;;;16.91;57.60;99311.58;1648527;86;21002;-49
2022/06/16 05:52:18;;;;;;;5.25;3.30;;;;;;;16.94;57.58;99311.34;1648547;87;21060;-49
2022/06/16 05:54:45;;;;;;;4.05;3.20;;;;;;;16.97;57.57;99306.24;1648581;86;21079;-50
2022/06/16 05:57:11;;;;;;;4.60;3.25;;;;;;;16.99;57.58;99309.61;1648747;86;21042;-49
2022/06/16 05:59:38;;;;;;;9.35;3.08;;;;;;;17.02;57.66;99308.05;1648579;86;21018;-47
2022/06/16 06:02:09;;;;;;;4.53;3.27;;;;;;;17.06;57.52;99309.47;1648678;86;20998;-48
2022/06/16 06:04:35;;;;;;;5.35;3.35;;;;;;;17.09;57.34;99305.25;1648070;86;21113;-52
2022/06/16 06:07:01;;;;;;;5.87;3.17;;;;;;;17.13;57.31;99304.02;1648588;87;21555;-46
2022/06/16 06:16:25;;;;;;;9.23;3.12;;;;;;;17.22;57.34;99307.73;1648586;86;21002;-50
2022/06/16 06:17:40;;;;;;;9.20;3.60;;;;;;;17.31;57.42;99297.66;1648634;87;21082;-49
2022/06/16 06:20:07;;;;;;;5.47;3.10;;;;;;;17.36;57.39;99307.93;1648563;87;21535;-51
2022/06/16 06:22:33;;;;;;;7.92;3.20;;;;;;;17.41;57.38;99308.39;1648662;87;21547;-51
2022/06/16 06:25:00;;;;;;;8.35;3.40;;;;;;;17.46;57.43;99307.03;1648579;86;21062;-52
2022/06/16 06:27:36;;;;;;;8.67;3.47;;;;;;;17.51;57.58;99305.30;1648708;87;21105;-48
2022/06/16 06:30:07;;;;;;;7.20;3.53;;;;;;;17.56;57.50;99304.93;1648781;86;21036;-50
2022/06/16 06:32:33;;;;;;;7.37;3.52;;;;;;;17.63;57.65;99301.63;1647011;86;21382;-52
2022/06/16 06:34:59;;;;;;;5.17;3.17;;;;;;;17.67;57.41;99298.70;1648543;86;21422;-49
2022/06/16 06:37:27;;;;;;;4.20;3.42;;;;;;;17.71;57.32;99300.13;1648624;86;21046;-53
2022/06/16 06:39:53;;;;;;;6.50;3.42;;;;;;;17.75;57.49;99299.72;1648473;86;21515;-52
2022/06/16 06:42:20;;;;;;;7.25;3.33;;;;;;;17.79;57.25;99292.33;1648468;86;21026;-51
2022/06/16 06:44:47;;;;;;;9.10;3.17;;;;;;;17.83;57.21;99290.61;1648737;87;21051;-50
2022/06/16 06:47:23;;;;;;;6.58;3.30;;;;;;;17.89;57.10;99289.77;1648599;86;21426;-53
2022/06/16 06:49:49;;;;;;;5.67;3.87;;;;;;;17.96;57.21;99283.78;1648524;87;21074;-48
2022/06/16 06:52:15;;;;;;;5.97;3.55;;;;;;;18.03;57.21;99287.60;1648544;86;21029;-51
2022/06/16 06:54:43;;;;;;;4.83;3.40;;;;;;;18.13;57.16;99276.99;1648744;87;20998;-48
2022/06/16 06:57:12;;;;;;;8.78;3.70;;;;;;;18.20;56.85;99274.15;1648725;87;21503;-51
2022/06/16 06:59:38;;;;;;;5.92;3.47;;;;;;;18.28;56.85;99274.83;1648559;87;21030;-51
2022/06/16 07:02:05;;;;;;;5.95;3.30;;;;;;;18.35;56.73;99275.95;1648564;87;21069;-50
2022/06/16 07:04:30;;;;;;;11.30;3.47;;;;;;;18.46;56.43;99276.34;1648477;87;21511;-50
2022/06/16 07:06:56;;;;;;;5.00;3.42;;;;;;;18.53;56.50;99276.65;1648419;86;21074;-47
2022/06/16 07:09:22;;;;;;;3.95;3.10;;;;;;;18.59;56.15;99264.11;1648668;87;21526;-47
2022/06/16 07:11:48;;;;;;;8.38;3.70;;;;;;;18.67;56.09;99261.61;1648540;86;21546;-48
2022/06/16 07:14:14;;;;;;;8.25;3.00;;;;;;;18.74;56.06;99259.25;1648505;86;21564;-47
2022/06/16 07:16:41;;;;;;;5.75;2.62;;;;;;;18.80;56.00;99264.85;1648548;86;21502;-47
2022/06/16 07:19:07;;;;;;;5.62;2.80;;;;;;;18.90;55.99;99267.58;1648499;87;21030;-50
2022/06/16 07:21:33;;;;;;;5.70;2.87;;;;;;;18.96;55.47;99266.17;1648457;87;21022;-50
2022/06/16 07:23:59;;;;;;;10.58;2.67;;;;;;;19.02;55.38;99267.44;1648477;87;21029;-47
2022/06/16 07:26:25;;;;;;;5.47;2.60;;;;;;;19.08;55.39;99266.41;1648447;87;21434;-49
2022/06/16 07:28:51;;;;;;;7.83;3.22;;;;;;;19.16;55.12;99261.20;1648738;86;21073;-52
2022/06/16 07:31:18;;;;;;;10.43;2.90;;;;;;;19.26;55.09;99263.02;1648458;86;21543;-53
2022/06/16 07:33:44;;;;;;;8.40;3.45;;;;;;;19.31;54.63;99262.11;1648602;87;21022;-51
2022/06/16 07:36:10;;;;;;;6.33;2.58;;;;;;;19.37;54.74;99262.86;1648685;87;21045;-49
2022/06/16 07:38:38;;;;;;;4.90;2.90;;;;;;;19.41;54.68;99260.28;1648477;87;21041;-52
2022/06/16 07:43:48;;;;;;;3.70;2.52;;;;;;;19.51;54.32;99249.59;1648374;86;21130;-49
2022/06/16 07:46:14;;;;;;;10.93;2.30;;;;;;;19.52;53.62;99249.45;1684451;84;21012;-49
2022/06/16 07:48:40;;;;;;;3.83;2.25;;;;;;;19.59;53.68;99248.87;1677223;85;21024;-48
2022/06/16 07:51:05;;;;;;;4.30;2.37;;;;;;;19.67;53.72;99254.34;1677276;85;21020;-49
2022/06/16 07:53:32;;;;;;;5.42;2.30;;;;;;;19.68;53.00;99248.86;1677260;84;21020;-51
2022/06/16 07:55:59;;;;;;;3.62;2.22;;;;;;;19.79;53.07;99245.69;1677372;85;21600;-49
2022/06/16 07:58:30;;;;;;;5.70;2.08;;;;;;;19.88;52.23;99256.35;1677508;84;21020;-48
2022/06/16 08:00:52;;;;;;;7.90;2.50;;;;;;;20.00;52.53;99248.99;1676834;85;21039;-49
2022/06/16 08:03:22;;;;;;;5.17;2.12;;;;;;;20.12;52.31;99252.33;1677265;84;21052;-50
2022/06/16 08:05:46;;;;;;;8.13;2.42;;;;;;;20.26;52.21;99243.80;1676889;84;21485;-51
2022/06/16 08:08:11;;;;;;;5.58;2.30;;;;;;;20.37;51.16;99240.61;1677334;85;21016;-52
2022/06/16 08:10:37;;;;;;;4.10;2.22;;;;;;;20.44;50.62;99247.03;1677287;84;20988;-50
2022/06/16 08:13:04;;;;;;;6.58;2.20;;;;;;;20.51;50.47;99240.94;1677262;85;21016;-48
2022/06/16 08:15:29;;;;;;;7.13;2.83;;;;;;;20.64;50.83;99232.59;1677495;85;20988;-49
2022/06/16 08:17:56;;;;;;;11.25;3.12;;;;;;;20.79;50.67;99241.42;1677311;85;21559;-52
2022/06/16 08:20:22;;;;;;;4.08;2.60;;;;;;;20.95;50.02;99236.74;1677496;84;21532;-47
2022/06/16 08:22:49;;;;;;;4.22;2.20;;;;;;;21.11;49.53;99231.55;1677288;84;21531;-47
2022/06/16 08:25:17;;;;;;;6.22;2.02;;;;;;;21.26;49.18;99238.52;1676326;85;21039;-50
2022/06/16 08:27:47;;;;;;;4.10;2.30;;;;;;;21.37;49.60;99240.11;1675703;84;21589;-49
2022/06/16 08:30:16;;;;;;;6.65;2.40;;;;;;;21.55;48.13;99238.77;1677181;85;21048;-49
2022/06/16 08:32:43;;;;;;;5.35;2.92;;;;;;;21.73;48.41;99240.06;1677239;84;21559;-49
2022/06/16 08:35:09;;;;;;;13.45;3.02;;;;;;;21.84;47.97;99249.98;1677579;85;21059;-48
2022/06/16 08:37:35;;;;;;;5.97;2.33;;;;;;;21.97;47.15;99249.55;1677505;84;21027;-48
2022/06/16 08:40:03;;;;;;;5.80;2.45;;;;;;;22.11;47.31;99245.45;1677507;85;21020;-48
2022/06/16 08:42:52;;;;;;;9.73;2.65;;;;;;;22.28;47.18;99245.55;1677256;85;21059;-49
2022/06/16 08:45:38;;;;;;;7.12;2.42;;;;;;;22.42;46.82;99240.41;1691484;85;21240;-49
2022/06/16 08:48:15;;;;;;;7.70;2.35;;;;;;;22.57;46.42;99243.30;1691303;84;21016;-49
2022/06/16 08:51:01;;;;;;;4.60;2.30;;;;;;;22.79;46.18;99235.17;1691043;83;20987;-47
2022/06/16 08:53:49;;;;;;;10.03;3.15;;;;;;;22.99;45.90;99233.02;1691591;84;21030;-49
2022/06/16 08:56:32;;;;;;;5.37;2.35;;;;;;;23.20;45.07;99234.39;1690870;83;21081;-46
2022/06/16 08:59:46;;;;;;;4.45;2.20;;;;;;;23.46;44.73;99235.55;1691280;83;21138;-47
2022/06/16 09:02:55;;;;;;;7.00;2.17;;;;;;;23.61;43.77;99237.03;1691262;85;20979;-49
2022/06/16 09:05:41;;;;;;;6.08;2.67;;;;;;;23.69;42.80;99233.52;1690509;83;21090;-48
2022/06/16 09:08:13;;;;;;;6.37;2.60;;;;;;;23.91;43.14;99236.01;1688442;84;21066;-49
2022/06/16 09:10:47;;;;;;;6.65;2.22;;;;;;;24.15;43.15;99241.28;1690548;83;20979;-47
2022/06/16 09:13:41;;;;;;;6.17;2.75;;;;;;;24.37;43.04;99233.98;1690957;83;21058;-48
2022/06/16 09:16:28;;;;;;;3.42;2.08;;;;;;;24.44;41.24;99235.79;1691632;83;20991;-50
2022/06/16 09:19:45;;;;;;;7.10;2.52;;;;;;;24.66;42.57;99227.98;1691697;85;21023;-50
2022/06/16 09:22:34;;;;;;;5.10;2.20;;;;;;;24.94;41.67;99221.59;1690381;83;21507;-48
2022/06/16 09:25:28;;;;;;;9.25;2.70;;;;;;;25.17;41.27;99225.59;1691568;83;20991;-49
2022/06/16 09:28:17;;;;;;;4.30;2.33;;;;;;;25.48;40.60;99228.20;1691599;83;21055;-51
2022/06/16 09:30:45;;;;;;;6.33;2.35;;;;;;;25.92;40.80;99218.49;1690964;83;21054;-48
2022/06/16 09:33:19;;;;;;;5.10;3.30;;;;;;;26.24;39.17;99221.87;1691752;83;21006;-47
2022/06/16 09:35:56;;;;;;;4.15;2.37;;;;;;;26.58;39.68;99215.02;1689989;83;20983;-47
2022/06/16 09:38:39;;;;;;;3.17;2.08;;;;;;;26.66;36.07;99214.92;1691785;85;21479;-47
2022/06/16 09:44:14;;;;;;;3.75;1.75;;;;;;;27.94;38.35;99218.55;1685104;84;21037;-46
2022/06/16 09:46:47;;;;;;;7.05;2.20;;;;;;;28.57;35.38;99218.94;1674713;85;21557;-46
2022/06/16 09:49:27;;;;;;;3.37;2.58;;;;;;;29.22;36.81;99213.05;1674752;84;21064;-45
2022/06/16 09:52:04;;;;;;;2.90;1.82;;;;;;;29.45;33.28;99224.30;1674774;86;21156;-46
2022/06/16 09:54:38;;;;;;;4.05;1.92;;;;;;;29.93;30.69;99221.02;1674272;85;21523;-47
2022/06/16 09:57:19;;;;;;;7.62;2.20;;;;;;;30.29;33.61;99229.13;1674720;85;21560;-44
2022/06/16 10:00:02;;;;;;;3.80;1.95;;;;;;;30.47;31.84;99218.45;1674053;85;21032;-44
2022/06/16 10:02:34;;;;;;;3.70;1.80;;;;;;;30.80;30.57;99216.08;1669594;85;21012;-50
2022/06/16 10:05:00;;;;;;;10.53;5.40;;;;;;;31.32;31.14;99208.59;1657364;86;21008;-47
2022/06/16 10:07:41;;;;;;;;;;;;;;;31.73;30.75;99218.09;1677242;86;21450;-46
2022/06/16 10:10:33;;;;;;;4.03;2.17;;;;;;;31.61;26.65;99211.72;1673608;85;20143;-50
2022/06/16 10:13:25;;;;;;;4.55;2.20;;;;;;;32.11;27.92;99218.44;1673591;84;20988;-45
2022/06/16 10:16:02;;;;;;;5.35;2.70;;;;;;;32.30;28.64;99210.26;1657779;85;20997;-45
2022/06/16 10:18:28;;;;;;;8.25;2.42;;;;;;;32.67;27.80;99206.97;1674717;86;21020;-46
2022/06/16 10:20:54;;;;;;;8.45;2.10;;;;;;;32.81;27.58;99202.14;1674848;86;21051;-46
2022/06/16 10:23:25;;;;;;;4.28;1.70;;;;;;;33.08;28.08;99193.58;1674819;84;21020;-47
2022/06/16 10:25:58;;;;;;;3.80;2.05;;;;;;;33.15;25.71;99206.59;1674084;84;21060;-46
2022/06/16 10:28:35;;;;;;;5.95;2.08;;;;;;;33.45;27.19;99201.02;1674709;86;21513;-46
2022/06/16 10:31:04;;;;;;;4.75;1.98;;;;;;;33.65;27.07;99204.78;1674761;86;21017;-46
2022/06/16 10:33:34;;;;;;;4.12;1.80;;;;;;;33.91;26.23;99201.80;1674788;84;21021;-49
2022/06/16 10:36:20;;;;;;;4.72;1.65;;;;;;;34.12;26.82;99196.25;1674693;85;21021;-46
2022/06/16 10:39:08;;;;;;;4.42;2.50;;;;;;;34.31;26.03;99207.33;1674699;86;21028;-46
2022/06/16 10:41:39;;;;;;;7.30;2.27;;;;;;;34.49;24.29;99202.73;1674447;86;21048;-46
2022/06/16 10:44:09;;;;;;;4.67;1.98;;;;;;;34.30;25.65;99193.37;1674622;85;21036;-45
2022/06/16 10:46:56;;;;;;;3.87;1.85;;;;;;;34.70;25.12;99207.55;1674743;85;21552;-48
2022/06/16 10:49:37;;;;;;;4.53;2.35;;;;;;;34.86;25.28;99205.10;1674722;86;21537;-46
2022/06/16 10:52:14;;;;;;;6.40;1.80;;;;;;;34.76;24.79;99209.28;1674656;85;21024;-45
2022/06/16 10:55:06;;;;;;;5.08;2.10;;;;;;;34.43;24.88;99200.45;1674685;86;21462;-47
2022/06/16 10:57:37;;;;;;;5.53;2.15;;;;;;;34.65;25.79;99210.14;1673457;85;21012;-47
2022/06/16 11:00:18;;;;;;;3.22;1.60;;;;;;;34.82;25.45;99208.86;1663788;86;20985;-46
2022/06/16 11:02:58;;;;;;;4.95;2.02;;;;;;;34.92;24.80;99203.56;1674574;85;21020;-45
2022/06/16 11:05:26;;;;;;;4.67;2.15;;;;;;;34.75;24.40;99204.09;1674668;84;21048;-45
2022/06/16 11:07:52;;;;;;;7.37;2.37;;;;;;;34.22;24.60;99202.78;1674688;84;21020;-47
2022/06/16 11:10:39;;;;;;;2.98;1.92;;;;;;;33.91;24.98;99201.80;1674837;86;21064;-45
2022/06/16 11:13:05;;;;;;;2.60;1.92;;;;;;;33.98;25.01;99200.63;1674908;84;21020;-45
2022/06/16 11:15:41;;;;;;;5.30;2.50;;;;;;;34.25;25.66;99196.00;1674736;84;21059;-49
2022/06/16 11:18:12;;;;;;;3.10;1.85;;;;;;;34.66;24.71;99198.70;1674053;85;21485;-46
2022/06/16 11:20:43;;;;;;;2.58;1.82;;;;;;;34.52;24.22;99195.43;1674755;85;20989;-49
2022/06/16 11:23:24;;;;;;;2.00;1.42;;;;;;;34.44;24.54;99196.66;1674688;86;21008;-46
2022/06/16 11:26:16;;;;;;;2.65;2.15;;;;;;;34.14;24.28;99190.83;1665967;84;21012;-45
2022/06/16 11:28:53;;;;;;;2.65;1.57;;;;;;;33.79;24.71;99187.66;1674650;85;21008;-45
2022/06/16 11:31:24;;;;;;;5.95;2.00;;;;;;;33.79;23.78;99186.83;1674222;84;21020;-46
2022/06/16 11:34:17;;;;;;;7.83;2.15;;;;;;;34.40;24.62;99182.67;1672811;85;20985;-44
2022/06/16 11:37:09;;;;;;;5.12;2.20;;;;;;;34.68;24.52;99176.89;1674183;85;21012;-48
2022/06/16 11:39:46;;;;;;;2.40;1.57;;;;;;;35.01;24.67;99179.40;1674644;86;21172;-45
2022/06/16 11:42:20;;;;;;;2.17;1.90;;;;;;;34.56;24.17;99181.03;1674700;85;21009;-45
2022/06/16 11:45:07;;;;;;;2.00;1.50;;;;;;;34.87;24.43;99172.59;1674147;84;21028;-45
2022/06/16 11:48:05;;;;;;;8.43;3.60;;;;;;;35.04;24.28;99169.34;1674280;85;21040;-48
2022/06/16 11:51:09;;;;;;;3.60;2.12;;;;;;;34.77;22.89;99164.52;1674747;86;21485;-50
2022/06/16 11:54:04;;;;;;;3.70;1.95;;;;;;;34.97;23.91;99159.94;1674837;85;21060;-46
2022/06/16 11:56:57;;;;;;;2.25;1.87;;;;;;;34.84;23.65;99153.95;1662365;84;21000;-50
2022/06/16 11:59:49;;;;;;;2.37;1.85;;;;;;;34.22;23.71;99146.02;1629012;86;21469;-49
2022/06/16 12:02:52;;;;;;;2.50;1.70;;;;;;;34.08;24.07;99151.43;1674024;84;21184;-46
2022/06/16 12:05:58;;;;;;;2.25;1.60;;;;;;;33.93;24.49;99153.28;1674774;85;21032;-46
2022/06/16 12:08:52;;;;;;;5.37;1.60;;;;;;;33.55;24.66;99150.02;1674643;85;21047;-45
2022/06/16 12:11:49;;;;;;;4.30;1.72;;;;;;;32.99;25.41;99137.78;1674669;86;21023;-44
2022/06/16 12:14:38;;;;;;;2.00;1.77;;;;;;;32.60;25.72;99134.61;1674498;85;21000;-47
2022/06/16 12:17:30;;;;;;;5.00;2.05;;;;;;;32.48;25.96;99128.57;1674685;84;21024;-49
2022/06/16 12:20:20;;;;;;;4.60;1.72;;;;;;;32.27;26.13;99126.36;1673126;86;21083;-48
2022/06/16 12:22:54;;;;;;;4.83;2.25;;;;;;;32.49;27.05;99116.64;1662927;86;21008;-46
2022/06/16 12:25:26;;;;;;;1.62;1.52;;;;;;;32.32;26.23;99112.36;1674674;86;21144;-49